sensor_id;sensor_type;location;lat;lon;timestamp;P1;durP1;ratioP1;P2;durP2;ratioP2
18090;SDS011;9172;49.948;9.208;2022-11-20T00:00:24;23.70;;;11.20;;
18090;SDS011;9172;49.948;9.208;2022-11-20T00:02:55;23.67;;;11.23;;
18090;SDS011;9172;49.948;9.208;2022-11-20T00:05:23;26.43;;;11.83;;
18090;SDS011;9172;49.948;9.208;2022-11-20T00:07:52;24.13;;;11.90;;
18090;SDS011;9172;49.948;9.208;2022-11-20T00:10:21;23.63;;;11.47;;
18090;SDS011;9172;49.948;9.208;2022-11-20T00:12:49;24.60;;;11.03;;
18090;SDS011;9172;49.948;9.208;2022-11-20T00:15:18;23.53;;;10.97;;
18090;SDS011;9172;49.948;9.208;2022-11-20T00:17:47;22.80;;;10.47;;
18090;SDS011;9172;49.948;9.208;2022-11-20T00:20:15;20.87;;;11.23;;
18090;SDS011;9172;49.948;9.208;2022-11-20T00:22:45;27.03;;;12.67;;
18090;SDS011;9172;49.948;9.208;2022-11-20T00:25:13;26.37;;;11.23;;
18090;SDS011;9172;49.948;9.208;2022-11-20T00:27:42;24.70;;;11.77;;
18090;SDS011;9172;49.948;9.208;2022-11-20T00:30:12;26.67;;;12.60;;
18090;SDS011;9172;49.948;9.208;2022-11-20T00:32:41;26.93;;;12.63;;
18090;SDS011;9172;49.948;9.208;2022-11-20T00:35:10;32.17;;;14.93;;
18090;SDS011;9172;49.948;9.208;2022-11-20T00:37:40;28.27;;;12.43;;
18090;SDS011;9172;49.948;9.208;2022-11-20T00:40:10;27.30;;;11.27;;
18090;SDS011;9172;49.948;9.208;2022-11-20T00:42:40;27.27;;;12.47;;
18090;SDS011;9172;49.948;9.208;2022-11-20T00:45:08;26.03;;;11.60;;
18090;SDS011;9172;49.948;9.208;2022-11-20T00:47:38;24.50;;;11.63;;
18090;SDS011;9172;49.948;9.208;2022-11-20T00:50:08;21.50;;;11.20;;
18090;SDS011;9172;49.948;9.208;2022-11-20T00:52:37;23.97;;;11.30;;
18090;SDS011;9172;49.948;9.208;2022-11-20T00:55:06;21.87;;;9.97;;
18090;SDS011;9172;49.948;9.208;2022-11-20T00:57:35;22.50;;;10.97;;
18090;SDS011;9172;49.948;9.208;2022-11-20T01:00:06;20.60;;;11.30;;
18090;SDS011;9172;49.948;9.208;2022-11-20T01:02:36;24.07;;;11.90;;
18090;SDS011;9172;49.948;9.208;2022-11-20T01:05:05;21.13;;;10.37;;
18090;SDS011;9172;49.948;9.208;2022-11-20T01:07:34;21.77;;;11.13;;
18090;SDS011;9172;49.948;9.208;2022-11-20T01:10:04;20.50;;;10.40;;
18090;SDS011;9172;49.948;9.208;2022-11-20T01:12:34;23.17;;;11.23;;
18090;SDS011;9172;49.948;9.208;2022-11-20T01:15:05;21.40;;;10.83;;
18090;SDS011;9172;49.948;9.208;2022-11-20T01:17:34;22.93;;;11.03;;
18090;SDS011;9172;49.948;9.208;2022-11-20T01:20:04;21.77;;;10.97;;
18090;SDS011;9172;49.948;9.208;2022-11-20T01:22:37;27.10;;;12.60;;
18090;SDS011;9172;49.948;9.208;2022-11-20T01:25:06;26.97;;;12.77;;
18090;SDS011;9172;49.948;9.208;2022-11-20T01:27:36;28.80;;;13.03;;
18090;SDS011;9172;49.948;9.208;2022-11-20T01:30:06;25.50;;;12.10;;
18090;SDS011;9172;49.948;9.208;2022-11-20T01:32:36;25.57;;;11.37;;
18090;SDS011;9172;49.948;9.208;2022-11-20T01:35:06;23.97;;;10.90;;
18090;SDS011;9172;49.948;9.208;2022-11-20T01:37:35;25.57;;;11.63;;
18090;SDS011;9172;49.948;9.208;2022-11-20T01:40:05;23.20;;;12.13;;
18090;SDS011;9172;49.948;9.208;2022-11-20T01:42:36;24.80;;;11.87;;
18090;SDS011;9172;49.948;9.208;2022-11-20T01:48:11;24.67;;;12.70;;
18090;SDS011;9172;49.948;9.208;2022-11-20T01:50:40;28.87;;;13.07;;
18090;SDS011;9172;49.948;9.208;2022-11-20T01:53:11;27.43;;;11.80;;
18090;SDS011;9172;49.948;9.208;2022-11-20T01:55:55;30.20;;;12.83;;
18090;SDS011;9172;49.948;9.208;2022-11-20T01:58:27;24.23;;;12.57;;
18090;SDS011;9172;49.948;9.208;2022-11-20T02:00:57;24.67;;;11.93;;
18090;SDS011;9172;49.948;9.208;2022-11-20T02:03:26;23.23;;;11.67;;
18090;SDS011;9172;49.948;9.208;2022-11-20T02:05:57;28.97;;;12.07;;
18090;SDS011;9172;49.948;9.208;2022-11-20T02:08:28;26.80;;;12.30;;
18090;SDS011;9172;49.948;9.208;2022-11-20T02:10:58;26.70;;;11.50;;
18090;SDS011;9172;49.948;9.208;2022-11-20T02:13:26;31.10;;;13.07;;
18090;SDS011;9172;49.948;9.208;2022-11-20T02:16:15;28.07;;;12.33;;
18090;SDS011;9172;49.948;9.208;2022-11-20T02:18:46;25.67;;;11.23;;
18090;SDS011;9172;49.948;9.208;2022-11-20T02:24:19;23.60;;;10.57;;
18090;SDS011;9172;49.948;9.208;2022-11-20T02:26:50;24.67;;;11.70;;
18090;SDS011;9172;49.948;9.208;2022-11-20T02:29:23;24.27;;;11.37;;
18090;SDS011;9172;49.948;9.208;2022-11-20T02:31:55;23.43;;;11.00;;
18090;SDS011;9172;49.948;9.208;2022-11-20T02:34:26;26.90;;;11.07;;
18090;SDS011;9172;49.948;9.208;2022-11-20T02:36:55;25.77;;;11.83;;
18090;SDS011;9172;49.948;9.208;2022-11-20T02:39:26;27.47;;;12.67;;
18090;SDS011;9172;49.948;9.208;2022-11-20T02:41:56;28.23;;;12.23;;
18090;SDS011;9172;49.948;9.208;2022-11-20T02:44:24;24.20;;;11.90;;
18090;SDS011;9172;49.948;9.208;2022-11-20T02:46:56;25.93;;;12.30;;
18090;SDS011;9172;49.948;9.208;2022-11-20T02:49:24;26.50;;;11.80;;
18090;SDS011;9172;49.948;9.208;2022-11-20T02:51:54;28.50;;;12.20;;
18090;SDS011;9172;49.948;9.208;2022-11-20T02:54:24;24.07;;;11.73;;
18090;SDS011;9172;49.948;9.208;2022-11-20T02:56:53;24.53;;;10.63;;
18090;SDS011;9172;49.948;9.208;2022-11-20T02:59:22;20.13;;;9.90;;
18090;SDS011;9172;49.948;9.208;2022-11-20T03:01:52;24.57;;;11.63;;
18090;SDS011;9172;49.948;9.208;2022-11-20T03:04:20;23.70;;;11.07;;
18090;SDS011;9172;49.948;9.208;2022-11-20T03:06:50;22.93;;;11.03;;
18090;SDS011;9172;49.948;9.208;2022-11-20T03:09:19;24.60;;;11.67;;
18090;SDS011;9172;49.948;9.208;2022-11-20T03:11:49;23.50;;;10.73;;
18090;SDS011;9172;49.948;9.208;2022-11-20T03:14:18;24.47;;;10.70;;
18090;SDS011;9172;49.948;9.208;2022-11-20T03:16:47;20.93;;;9.60;;
18090;SDS011;9172;49.948;9.208;2022-11-20T03:19:15;22.23;;;10.20;;
18090;SDS011;9172;49.948;9.208;2022-11-20T03:21:44;19.23;;;10.00;;
18090;SDS011;9172;49.948;9.208;2022-11-20T03:24:13;24.53;;;11.07;;
18090;SDS011;9172;49.948;9.208;2022-11-20T03:26:42;20.73;;;9.83;;
18090;SDS011;9172;49.948;9.208;2022-11-20T03:29:10;21.97;;;11.30;;
18090;SDS011;9172;49.948;9.208;2022-11-20T03:31:40;22.63;;;11.40;;
18090;SDS011;9172;49.948;9.208;2022-11-20T03:34:10;23.77;;;11.20;;
18090;SDS011;9172;49.948;9.208;2022-11-20T03:36:39;21.50;;;11.00;;
18090;SDS011;9172;49.948;9.208;2022-11-20T03:39:09;27.10;;;10.83;;
18090;SDS011;9172;49.948;9.208;2022-11-20T03:41:40;21.17;;;9.97;;
18090;SDS011;9172;49.948;9.208;2022-11-20T03:44:10;24.63;;;10.63;;
18090;SDS011;9172;49.948;9.208;2022-11-20T03:46:40;26.27;;;11.70;;
18090;SDS011;9172;49.948;9.208;2022-11-20T03:49:09;22.97;;;10.60;;
18090;SDS011;9172;49.948;9.208;2022-11-20T03:51:37;20.40;;;10.37;;
18090;SDS011;9172;49.948;9.208;2022-11-20T03:54:07;21.50;;;10.07;;
18090;SDS011;9172;49.948;9.208;2022-11-20T03:56:37;21.97;;;9.87;;
18090;SDS011;9172;49.948;9.208;2022-11-20T03:59:06;19.17;;;8.83;;
18090;SDS011;9172;49.948;9.208;2022-11-20T04:01:37;21.10;;;9.53;;
18090;SDS011;9172;49.948;9.208;2022-11-20T04:04:05;25.17;;;10.07;;
18090;SDS011;9172;49.948;9.208;2022-11-20T04:06:35;21.87;;;9.53;;
18090;SDS011;9172;49.948;9.208;2022-11-20T04:09:05;17.07;;;9.43;;
18090;SDS011;9172;49.948;9.208;2022-11-20T04:11:35;17.60;;;8.67;;
18090;SDS011;9172;49.948;9.208;2022-11-20T04:14:05;21.47;;;10.00;;
18090;SDS011;9172;49.948;9.208;2022-11-20T04:16:36;18.87;;;8.70;;
18090;SDS011;9172;49.948;9.208;2022-11-20T04:21:54;20.77;;;10.27;;
18090;SDS011;9172;49.948;9.208;2022-11-20T04:24:23;22.17;;;10.93;;
18090;SDS011;9172;49.948;9.208;2022-11-20T04:26:53;17.13;;;8.63;;
18090;SDS011;9172;49.948;9.208;2022-11-20T04:29:22;19.70;;;9.27;;
18090;SDS011;9172;49.948;9.208;2022-11-20T04:31:51;18.37;;;8.50;;
18090;SDS011;9172;49.948;9.208;2022-11-20T04:34:20;19.53;;;9.10;;
18090;SDS011;9172;49.948;9.208;2022-11-20T04:36:50;18.17;;;8.83;;
18090;SDS011;9172;49.948;9.208;2022-11-20T04:39:19;21.13;;;9.30;;
18090;SDS011;9172;49.948;9.208;2022-11-20T04:41:47;18.60;;;9.07;;
18090;SDS011;9172;49.948;9.208;2022-11-20T04:44:18;18.93;;;9.77;;
18090;SDS011;9172;49.948;9.208;2022-11-20T04:46:47;18.57;;;9.13;;
18090;SDS011;9172;49.948;9.208;2022-11-20T04:49:17;17.67;;;8.67;;
18090;SDS011;9172;49.948;9.208;2022-11-20T04:51:46;15.53;;;8.00;;
18090;SDS011;9172;49.948;9.208;2022-11-20T04:54:16;17.80;;;9.00;;
18090;SDS011;9172;49.948;9.208;2022-11-20T04:56:47;16.13;;;8.20;;
18090;SDS011;9172;49.948;9.208;2022-11-20T04:59:16;14.97;;;7.40;;
18090;SDS011;9172;49.948;9.208;2022-11-20T05:01:46;13.30;;;7.17;;
18090;SDS011;9172;49.948;9.208;2022-11-20T05:04:15;13.97;;;7.17;;
18090;SDS011;9172;49.948;9.208;2022-11-20T05:06:44;13.30;;;6.70;;
18090;SDS011;9172;49.948;9.208;2022-11-20T05:09:14;15.57;;;7.27;;
18090;SDS011;9172;49.948;9.208;2022-11-20T05:11:43;14.57;;;7.27;;
18090;SDS011;9172;49.948;9.208;2022-11-20T05:14:11;13.43;;;6.60;;
18090;SDS011;9172;49.948;9.208;2022-11-20T05:16:40;14.27;;;6.17;;
18090;SDS011;9172;49.948;9.208;2022-11-20T05:19:09;11.67;;;5.73;;
18090;SDS011;9172;49.948;9.208;2022-11-20T05:21:38;15.70;;;7.10;;
18090;SDS011;9172;49.948;9.208;2022-11-20T05:24:07;12.10;;;5.90;;
18090;SDS011;9172;49.948;9.208;2022-11-20T05:26:36;12.23;;;6.23;;
18090;SDS011;9172;49.948;9.208;2022-11-20T05:29:05;10.23;;;5.40;;
18090;SDS011;9172;49.948;9.208;2022-11-20T05:31:36;12.87;;;6.50;;
18090;SDS011;9172;49.948;9.208;2022-11-20T05:34:07;12.87;;;6.07;;
18090;SDS011;9172;49.948;9.208;2022-11-20T05:36:37;10.93;;;5.73;;
18090;SDS011;9172;49.948;9.208;2022-11-20T05:39:05;16.07;;;5.83;;
18090;SDS011;9172;49.948;9.208;2022-11-20T05:41:35;13.80;;;7.57;;
18090;SDS011;9172;49.948;9.208;2022-11-20T05:44:04;12.90;;;6.67;;
18090;SDS011;9172;49.948;9.208;2022-11-20T05:46:32;14.70;;;7.13;;
18090;SDS011;9172;49.948;9.208;2022-11-20T05:49:01;14.03;;;6.97;;
18090;SDS011;9172;49.948;9.208;2022-11-20T05:51:30;13.23;;;6.90;;
18090;SDS011;9172;49.948;9.208;2022-11-20T05:53:59;12.97;;;6.50;;
18090;SDS011;9172;49.948;9.208;2022-11-20T05:56:28;13.80;;;6.63;;
18090;SDS011;9172;49.948;9.208;2022-11-20T05:58:56;15.20;;;6.97;;
18090;SDS011;9172;49.948;9.208;2022-11-20T06:01:25;15.83;;;7.13;;
18090;SDS011;9172;49.948;9.208;2022-11-20T06:03:54;12.97;;;6.63;;
18090;SDS011;9172;49.948;9.208;2022-11-20T06:06:24;15.60;;;7.30;;
18090;SDS011;9172;49.948;9.208;2022-11-20T06:08:54;22.43;;;8.03;;
18090;SDS011;9172;49.948;9.208;2022-11-20T06:11:25;16.20;;;7.57;;
18090;SDS011;9172;49.948;9.208;2022-11-20T06:13:53;19.23;;;7.43;;
18090;SDS011;9172;49.948;9.208;2022-11-20T06:16:23;15.20;;;7.43;;
18090;SDS011;9172;49.948;9.208;2022-11-20T06:18:53;15.23;;;6.67;;
18090;SDS011;9172;49.948;9.208;2022-11-20T06:21:22;16.27;;;6.77;;
18090;SDS011;9172;49.948;9.208;2022-11-20T06:23:51;18.50;;;8.00;;
18090;SDS011;9172;49.948;9.208;2022-11-20T06:26:22;16.77;;;7.97;;
18090;SDS011;9172;49.948;9.208;2022-11-20T06:28:52;16.40;;;8.40;;
18090;SDS011;9172;49.948;9.208;2022-11-20T06:31:22;14.97;;;7.30;;
18090;SDS011;9172;49.948;9.208;2022-11-20T06:33:52;18.37;;;7.87;;
18090;SDS011;9172;49.948;9.208;2022-11-20T06:36:22;19.17;;;8.47;;
18090;SDS011;9172;49.948;9.208;2022-11-20T06:38:53;15.90;;;7.40;;
18090;SDS011;9172;49.948;9.208;2022-11-20T06:41:23;21.10;;;7.73;;
18090;SDS011;9172;49.948;9.208;2022-11-20T06:43:54;16.73;;;7.80;;
18090;SDS011;9172;49.948;9.208;2022-11-20T06:46:23;16.10;;;7.10;;
18090;SDS011;9172;49.948;9.208;2022-11-20T06:48:54;20.53;;;9.10;;
18090;SDS011;9172;49.948;9.208;2022-11-20T06:51:25;13.97;;;6.80;;
18090;SDS011;9172;49.948;9.208;2022-11-20T06:53:53;17.63;;;7.30;;
18090;SDS011;9172;49.948;9.208;2022-11-20T06:56:22;19.30;;;8.23;;
18090;SDS011;9172;49.948;9.208;2022-11-20T06:58:51;16.63;;;7.40;;
18090;SDS011;9172;49.948;9.208;2022-11-20T07:01:20;16.00;;;8.13;;
18090;SDS011;9172;49.948;9.208;2022-11-20T07:03:49;14.73;;;6.87;;
18090;SDS011;9172;49.948;9.208;2022-11-20T07:06:18;22.37;;;8.00;;
18090;SDS011;9172;49.948;9.208;2022-11-20T07:08:47;17.80;;;7.83;;
18090;SDS011;9172;49.948;9.208;2022-11-20T07:11:18;27.13;;;9.53;;
18090;SDS011;9172;49.948;9.208;2022-11-20T07:13:47;16.77;;;7.80;;
18090;SDS011;9172;49.948;9.208;2022-11-20T07:16:15;18.70;;;9.13;;
18090;SDS011;9172;49.948;9.208;2022-11-20T07:18:45;16.97;;;7.10;;
18090;SDS011;9172;49.948;9.208;2022-11-20T07:21:15;15.60;;;7.10;;
18090;SDS011;9172;49.948;9.208;2022-11-20T07:23:45;17.43;;;6.43;;
18090;SDS011;9172;49.948;9.208;2022-11-20T07:26:13;13.87;;;6.53;;
18090;SDS011;9172;49.948;9.208;2022-11-20T07:28:44;22.83;;;6.83;;
18090;SDS011;9172;49.948;9.208;2022-11-20T07:31:13;17.13;;;7.93;;
18090;SDS011;9172;49.948;9.208;2022-11-20T07:33:43;18.73;;;6.83;;
18090;SDS011;9172;49.948;9.208;2022-11-20T07:36:12;14.23;;;6.63;;
18090;SDS011;9172;49.948;9.208;2022-11-20T07:38:41;16.83;;;7.23;;
18090;SDS011;9172;49.948;9.208;2022-11-20T07:41:10;13.33;;;5.60;;
18090;SDS011;9172;49.948;9.208;2022-11-20T07:43:40;17.10;;;6.43;;
18090;SDS011;9172;49.948;9.208;2022-11-20T07:46:08;14.20;;;7.03;;
18090;SDS011;9172;49.948;9.208;2022-11-20T07:48:38;12.43;;;5.57;;
18090;SDS011;9172;49.948;9.208;2022-11-20T07:51:07;13.97;;;6.03;;
18090;SDS011;9172;49.948;9.208;2022-11-20T07:53:36;13.20;;;5.97;;
18090;SDS011;9172;49.948;9.208;2022-11-20T07:56:05;12.57;;;6.10;;
18090;SDS011;9172;49.948;9.208;2022-11-20T07:58:34;11.10;;;6.00;;
18090;SDS011;9172;49.948;9.208;2022-11-20T08:01:06;11.70;;;5.67;;
18090;SDS011;9172;49.948;9.208;2022-11-20T08:03:35;10.87;;;5.40;;
18090;SDS011;9172;49.948;9.208;2022-11-20T08:06:04;12.07;;;6.20;;
18090;SDS011;9172;49.948;9.208;2022-11-20T08:08:35;15.20;;;6.77;;
18090;SDS011;9172;49.948;9.208;2022-11-20T08:11:05;12.50;;;6.43;;
18090;SDS011;9172;49.948;9.208;2022-11-20T08:13:52;13.90;;;6.33;;
18090;SDS011;9172;49.948;9.208;2022-11-20T08:16:42;10.13;;;5.50;;
18090;SDS011;9172;49.948;9.208;2022-11-20T08:19:12;9.33;;;5.33;;
18090;SDS011;9172;49.948;9.208;2022-11-20T08:21:42;11.23;;;5.27;;
18090;SDS011;9172;49.948;9.208;2022-11-20T08:24:12;10.57;;;5.00;;
18090;SDS011;9172;49.948;9.208;2022-11-20T08:26:41;10.40;;;5.00;;
18090;SDS011;9172;49.948;9.208;2022-11-20T08:29:09;8.10;;;4.00;;
18090;SDS011;9172;49.948;9.208;2022-11-20T08:31:38;55.33;;;18.00;;
18090;SDS011;9172;49.948;9.208;2022-11-20T08:34:08;17.53;;;7.73;;
18090;SDS011;9172;49.948;9.208;2022-11-20T08:36:36;35.63;;;12.67;;
18090;SDS011;9172;49.948;9.208;2022-11-20T08:39:05;38.50;;;12.50;;
18090;SDS011;9172;49.948;9.208;2022-11-20T08:41:35;34.97;;;11.73;;
18090;SDS011;9172;49.948;9.208;2022-11-20T08:44:04;22.73;;;9.07;;
18090;SDS011;9172;49.948;9.208;2022-11-20T08:46:34;19.40;;;6.57;;
18090;SDS011;9172;49.948;9.208;2022-11-20T08:49:05;16.83;;;6.83;;
18090;SDS011;9172;49.948;9.208;2022-11-20T08:51:35;17.07;;;7.93;;
18090;SDS011;9172;49.948;9.208;2022-11-20T08:54:04;13.50;;;6.73;;
18090;SDS011;9172;49.948;9.208;2022-11-20T08:56:34;15.37;;;7.47;;
18090;SDS011;9172;49.948;9.208;2022-11-20T08:59:03;11.33;;;6.13;;
18090;SDS011;9172;49.948;9.208;2022-11-20T09:01:32;12.33;;;6.10;;
18090;SDS011;9172;49.948;9.208;2022-11-20T09:04:01;10.90;;;4.53;;
18090;SDS011;9172;49.948;9.208;2022-11-20T09:06:31;8.33;;;4.57;;
18090;SDS011;9172;49.948;9.208;2022-11-20T09:09:00;9.70;;;4.47;;
18090;SDS011;9172;49.948;9.208;2022-11-20T09:11:30;6.47;;;3.67;;
18090;SDS011;9172;49.948;9.208;2022-11-20T09:14:00;9.10;;;4.37;;
18090;SDS011;9172;49.948;9.208;2022-11-20T09:16:28;8.93;;;4.47;;
18090;SDS011;9172;49.948;9.208;2022-11-20T09:18:58;8.27;;;4.60;;
18090;SDS011;9172;49.948;9.208;2022-11-20T09:21:26;6.47;;;4.00;;
18090;SDS011;9172;49.948;9.208;2022-11-20T09:23:56;7.00;;;3.87;;
18090;SDS011;9172;49.948;9.208;2022-11-20T09:26:25;7.87;;;4.10;;
18090;SDS011;9172;49.948;9.208;2022-11-20T09:28:54;8.80;;;4.40;;
18090;SDS011;9172;49.948;9.208;2022-11-20T09:31:24;8.23;;;4.30;;
18090;SDS011;9172;49.948;9.208;2022-11-20T09:33:53;9.07;;;4.87;;
18090;SDS011;9172;49.948;9.208;2022-11-20T09:36:23;8.23;;;4.17;;
18090;SDS011;9172;49.948;9.208;2022-11-20T09:38:52;8.67;;;5.17;;
18090;SDS011;9172;49.948;9.208;2022-11-20T09:41:30;8.40;;;4.67;;
18090;SDS011;9172;49.948;9.208;2022-11-20T09:44:18;9.20;;;4.10;;
18090;SDS011;9172;49.948;9.208;2022-11-20T09:46:49;9.97;;;4.80;;
18090;SDS011;9172;49.948;9.208;2022-11-20T09:49:23;7.57;;;4.60;;
18090;SDS011;9172;49.948;9.208;2022-11-20T09:57:09;9.50;;;4.97;;
18090;SDS011;9172;49.948;9.208;2022-11-20T09:59:41;9.10;;;4.50;;
18090;SDS011;9172;49.948;9.208;2022-11-20T10:02:16;10.17;;;4.83;;
18090;SDS011;9172;49.948;9.208;2022-11-20T10:04:49;10.40;;;5.40;;
18090;SDS011;9172;49.948;9.208;2022-11-20T10:07:21;10.83;;;5.83;;
18090;SDS011;9172;49.948;9.208;2022-11-20T10:09:53;11.23;;;5.37;;
18090;SDS011;9172;49.948;9.208;2022-11-20T10:12:25;11.50;;;5.10;;
18090;SDS011;9172;49.948;9.208;2022-11-20T10:14:58;11.63;;;6.63;;
18090;SDS011;9172;49.948;9.208;2022-11-20T10:17:53;12.10;;;6.23;;
18090;SDS011;9172;49.948;9.208;2022-11-20T10:20:26;12.40;;;5.60;;
18090;SDS011;9172;49.948;9.208;2022-11-20T10:23:11;13.03;;;5.90;;
18090;SDS011;9172;49.948;9.208;2022-11-20T10:25:54;15.80;;;7.27;;
18090;SDS011;9172;49.948;9.208;2022-11-20T10:28:28;14.13;;;6.80;;
18090;SDS011;9172;49.948;9.208;2022-11-20T10:31:09;16.20;;;8.17;;
18090;SDS011;9172;49.948;9.208;2022-11-20T10:33:41;14.80;;;7.53;;
18090;SDS011;9172;49.948;9.208;2022-11-20T10:36:14;16.73;;;7.53;;
18090;SDS011;9172;49.948;9.208;2022-11-20T10:38:45;16.40;;;7.87;;
18090;SDS011;9172;49.948;9.208;2022-11-20T10:41:17;16.10;;;8.33;;
18090;SDS011;9172;49.948;9.208;2022-11-20T10:43:53;17.53;;;8.60;;
18090;SDS011;9172;49.948;9.208;2022-11-20T10:46:29;16.90;;;8.37;;
18090;SDS011;9172;49.948;9.208;2022-11-20T10:48:59;18.83;;;7.67;;
18090;SDS011;9172;49.948;9.208;2022-11-20T10:51:33;17.53;;;8.53;;
18090;SDS011;9172;49.948;9.208;2022-11-20T10:54:10;18.43;;;9.30;;
18090;SDS011;9172;49.948;9.208;2022-11-20T10:56:42;15.73;;;8.50;;
18090;SDS011;9172;49.948;9.208;2022-11-20T10:59:25;16.20;;;8.40;;
18090;SDS011;9172;49.948;9.208;2022-11-20T11:02:19;17.93;;;8.13;;
18090;SDS011;9172;49.948;9.208;2022-11-20T11:04:50;17.37;;;8.47;;
18090;SDS011;9172;49.948;9.208;2022-11-20T11:07:21;16.07;;;8.67;;
18090;SDS011;9172;49.948;9.208;2022-11-20T11:09:53;17.53;;;8.30;;
18090;SDS011;9172;49.948;9.208;2022-11-20T11:12:23;18.43;;;8.80;;
18090;SDS011;9172;49.948;9.208;2022-11-20T11:14:54;18.23;;;8.70;;
18090;SDS011;9172;49.948;9.208;2022-11-20T11:17:25;19.87;;;8.93;;
18090;SDS011;9172;49.948;9.208;2022-11-20T11:20:03;16.37;;;8.20;;
18090;SDS011;9172;49.948;9.208;2022-11-20T11:22:43;15.70;;;8.30;;
18090;SDS011;9172;49.948;9.208;2022-11-20T11:25:18;17.47;;;8.73;;
18090;SDS011;9172;49.948;9.208;2022-11-20T11:27:49;18.33;;;8.63;;
18090;SDS011;9172;49.948;9.208;2022-11-20T11:30:21;19.90;;;9.70;;
18090;SDS011;9172;49.948;9.208;2022-11-20T11:32:50;18.63;;;8.83;;
18090;SDS011;9172;49.948;9.208;2022-11-20T11:35:30;17.50;;;9.67;;
18090;SDS011;9172;49.948;9.208;2022-11-20T11:38:04;20.33;;;9.83;;
18090;SDS011;9172;49.948;9.208;2022-11-20T11:40:34;19.67;;;9.17;;
18090;SDS011;9172;49.948;9.208;2022-11-20T11:43:06;18.43;;;9.53;;
18090;SDS011;9172;49.948;9.208;2022-11-20T11:46:04;21.73;;;9.93;;
18090;SDS011;9172;49.948;9.208;2022-11-20T11:48:38;23.87;;;10.57;;
18090;SDS011;9172;49.948;9.208;2022-11-20T11:51:08;16.80;;;9.23;;
18090;SDS011;9172;49.948;9.208;2022-11-20T11:53:38;18.80;;;8.87;;
18090;SDS011;9172;49.948;9.208;2022-11-20T11:56:09;18.60;;;9.07;;
18090;SDS011;9172;49.948;9.208;2022-11-20T11:58:43;17.17;;;9.43;;
18090;SDS011;9172;49.948;9.208;2022-11-20T12:01:19;17.13;;;8.57;;
18090;SDS011;9172;49.948;9.208;2022-11-20T12:03:55;17.13;;;9.03;;
18090;SDS011;9172;49.948;9.208;2022-11-20T12:06:29;19.63;;;9.30;;
18090;SDS011;9172;49.948;9.208;2022-11-20T12:09:02;15.97;;;9.20;;
18090;SDS011;9172;49.948;9.208;2022-11-20T12:14:11;17.83;;;8.67;;
18090;SDS011;9172;49.948;9.208;2022-11-20T12:19:25;16.47;;;7.93;;
18090;SDS011;9172;49.948;9.208;2022-11-20T12:24:41;17.40;;;9.60;;
18090;SDS011;9172;49.948;9.208;2022-11-20T12:27:35;17.97;;;9.00;;
18090;SDS011;9172;49.948;9.208;2022-11-20T12:30:17;19.50;;;8.27;;
18090;SDS011;9172;49.948;9.208;2022-11-20T12:36:15;18.37;;;8.53;;
18090;SDS011;9172;49.948;9.208;2022-11-20T12:38:53;17.33;;;8.97;;
18090;SDS011;9172;49.948;9.208;2022-11-20T12:41:32;19.73;;;9.37;;
18090;SDS011;9172;49.948;9.208;2022-11-20T12:44:32;20.53;;;9.90;;
18090;SDS011;9172;49.948;9.208;2022-11-20T12:47:24;23.20;;;10.67;;
18090;SDS011;9172;49.948;9.208;2022-11-20T12:49:56;19.83;;;8.93;;
18090;SDS011;9172;49.948;9.208;2022-11-20T12:52:38;22.00;;;10.30;;
18090;SDS011;9172;49.948;9.208;2022-11-20T12:55:22;20.80;;;9.10;;
18090;SDS011;9172;49.948;9.208;2022-11-20T12:57:56;21.70;;;10.07;;
18090;SDS011;9172;49.948;9.208;2022-11-20T13:00:27;18.97;;;9.00;;
18090;SDS011;9172;49.948;9.208;2022-11-20T13:03:00;20.20;;;10.90;;
18090;SDS011;9172;49.948;9.208;2022-11-20T13:05:49;14.50;;;8.40;;
18090;SDS011;9172;49.948;9.208;2022-11-20T13:08:21;16.50;;;8.30;;
18090;SDS011;9172;49.948;9.208;2022-11-20T13:10:54;18.20;;;9.60;;
18090;SDS011;9172;49.948;9.208;2022-11-20T13:13:29;16.47;;;8.70;;
18090;SDS011;9172;49.948;9.208;2022-11-20T13:16:00;17.53;;;8.60;;
18090;SDS011;9172;49.948;9.208;2022-11-20T13:18:33;19.93;;;9.03;;
18090;SDS011;9172;49.948;9.208;2022-11-20T13:21:13;16.57;;;8.27;;
18090;SDS011;9172;49.948;9.208;2022-11-20T13:23:43;18.93;;;9.83;;
18090;SDS011;9172;49.948;9.208;2022-11-20T13:26:16;15.03;;;7.30;;
18090;SDS011;9172;49.948;9.208;2022-11-20T13:28:47;18.93;;;8.97;;
18090;SDS011;9172;49.948;9.208;2022-11-20T13:31:29;17.00;;;8.87;;
18090;SDS011;9172;49.948;9.208;2022-11-20T13:34:01;21.33;;;9.77;;
18090;SDS011;9172;49.948;9.208;2022-11-20T13:36:32;17.83;;;8.73;;
18090;SDS011;9172;49.948;9.208;2022-11-20T13:39:04;16.57;;;8.60;;
18090;SDS011;9172;49.948;9.208;2022-11-20T13:41:33;18.53;;;9.03;;
18090;SDS011;9172;49.948;9.208;2022-11-20T13:44:10;16.80;;;9.47;;
18090;SDS011;9172;49.948;9.208;2022-11-20T13:46:41;18.93;;;9.77;;
18090;SDS011;9172;49.948;9.208;2022-11-20T13:49:16;14.47;;;7.80;;
18090;SDS011;9172;49.948;9.208;2022-11-20T13:51:47;15.73;;;8.80;;
18090;SDS011;9172;49.948;9.208;2022-11-20T13:54:32;18.30;;;8.60;;
18090;SDS011;9172;49.948;9.208;2022-11-20T13:57:27;21.10;;;9.63;;
18090;SDS011;9172;49.948;9.208;2022-11-20T14:00:09;19.23;;;9.97;;
18090;SDS011;9172;49.948;9.208;2022-11-20T14:02:40;17.97;;;9.27;;
18090;SDS011;9172;49.948;9.208;2022-11-20T14:05:15;17.83;;;8.80;;
18090;SDS011;9172;49.948;9.208;2022-11-20T14:07:46;15.50;;;7.70;;
18090;SDS011;9172;49.948;9.208;2022-11-20T14:10:20;13.97;;;7.60;;
18090;SDS011;9172;49.948;9.208;2022-11-20T14:12:50;14.23;;;7.80;;
18090;SDS011;9172;49.948;9.208;2022-11-20T14:15:29;14.93;;;7.83;;
18090;SDS011;9172;49.948;9.208;2022-11-20T14:18:10;17.57;;;8.93;;
18090;SDS011;9172;49.948;9.208;2022-11-20T14:20:40;19.83;;;8.30;;
18090;SDS011;9172;49.948;9.208;2022-11-20T14:23:10;13.40;;;7.50;;
18090;SDS011;9172;49.948;9.208;2022-11-20T14:25:42;13.97;;;7.63;;
18090;SDS011;9172;49.948;9.208;2022-11-20T14:28:17;13.60;;;7.57;;
18090;SDS011;9172;49.948;9.208;2022-11-20T14:30:47;14.87;;;8.10;;
18090;SDS011;9172;49.948;9.208;2022-11-20T14:33:16;13.47;;;7.77;;
18090;SDS011;9172;49.948;9.208;2022-11-20T14:35:48;14.97;;;8.60;;
18090;SDS011;9172;49.948;9.208;2022-11-20T14:38:21;17.17;;;9.03;;
18090;SDS011;9172;49.948;9.208;2022-11-20T14:40:51;15.77;;;8.53;;
18090;SDS011;9172;49.948;9.208;2022-11-20T14:43:22;16.60;;;8.77;;
18090;SDS011;9172;49.948;9.208;2022-11-20T14:45:56;16.90;;;8.93;;
18090;SDS011;9172;49.948;9.208;2022-11-20T14:48:28;15.73;;;9.17;;
18090;SDS011;9172;49.948;9.208;2022-11-20T14:51:00;16.77;;;8.90;;
18090;SDS011;9172;49.948;9.208;2022-11-20T14:53:28;16.40;;;8.50;;
18090;SDS011;9172;49.948;9.208;2022-11-20T14:55:58;17.83;;;9.13;;
18090;SDS011;9172;49.948;9.208;2022-11-20T14:58:28;21.53;;;9.27;;
18090;SDS011;9172;49.948;9.208;2022-11-20T15:01:00;19.57;;;8.63;;
18090;SDS011;9172;49.948;9.208;2022-11-20T15:03:31;20.67;;;10.07;;
18090;SDS011;9172;49.948;9.208;2022-11-20T15:06:01;22.93;;;10.87;;
18090;SDS011;9172;49.948;9.208;2022-11-20T15:08:31;22.60;;;11.53;;
18090;SDS011;9172;49.948;9.208;2022-11-20T15:11:00;26.23;;;12.80;;
18090;SDS011;9172;49.948;9.208;2022-11-20T15:13:31;21.13;;;9.00;;
18090;SDS011;9172;49.948;9.208;2022-11-20T15:16:01;9.73;;;5.80;;
18090;SDS011;9172;49.948;9.208;2022-11-20T15:18:32;12.67;;;6.60;;
18090;SDS011;9172;49.948;9.208;2022-11-20T15:21:03;11.30;;;5.90;;
18090;SDS011;9172;49.948;9.208;2022-11-20T15:23:36;9.90;;;6.50;;
18090;SDS011;9172;49.948;9.208;2022-11-20T15:26:05;14.37;;;7.93;;
18090;SDS011;9172;49.948;9.208;2022-11-20T15:28:35;12.70;;;6.07;;
18090;SDS011;9172;49.948;9.208;2022-11-20T15:31:05;16.10;;;7.10;;
18090;SDS011;9172;49.948;9.208;2022-11-20T15:33:38;11.20;;;5.60;;
18090;SDS011;9172;49.948;9.208;2022-11-20T15:36:07;11.93;;;6.37;;